sensor_id;sensor_type;location;lat;lon;timestamp;P1;durP1;ratioP1;P2;durP2;ratioP2
12171;SDS011;6149;52.418;13.668;2023-04-24T00:01:37;6.17;;;5.63;;
12171;SDS011;6149;52.418;13.668;2023-04-24T00:04:08;6.40;;;5.80;;
12171;SDS011;6149;52.418;13.668;2023-04-24T00:06:36;6.10;;;5.60;;
12171;SDS011;6149;52.418;13.668;2023-04-24T00:09:06;6.70;;;5.43;;
12171;SDS011;6149;52.418;13.668;2023-04-24T00:11:35;6.43;;;5.83;;
12171;SDS011;6149;52.418;13.668;2023-04-24T00:14:02;6.63;;;5.93;;
12171;SDS011;6149;52.418;13.668;2023-04-24T00:16:29;6.33;;;5.73;;
12171;SDS011;6149;52.418;13.668;2023-04-24T00:18:55;7.03;;;5.47;;
12171;SDS011;6149;52.418;13.668;2023-04-24T00:21:22;6.50;;;5.70;;
12171;SDS011;6149;52.418;13.668;2023-04-24T00:23:50;6.47;;;5.83;;
12171;SDS011;6149;52.418;13.668;2023-04-24T00:26:18;6.27;;;5.60;;
12171;SDS011;6149;52.418;13.668;2023-04-24T00:28:46;6.27;;;5.67;;
12171;SDS011;6149;52.418;13.668;2023-04-24T00:31:12;6.90;;;6.20;;
12171;SDS011;6149;52.418;13.668;2023-04-24T00:33:40;6.37;;;5.77;;
12171;SDS011;6149;52.418;13.668;2023-04-24T00:36:08;6.60;;;5.43;;
12171;SDS011;6149;52.418;13.668;2023-04-24T00:38:40;6.10;;;5.50;;
12171;SDS011;6149;52.418;13.668;2023-04-24T00:41:09;6.33;;;5.63;;
12171;SDS011;6149;52.418;13.668;2023-04-24T00:43:43;5.70;;;5.20;;
12171;SDS011;6149;52.418;13.668;2023-04-24T00:46:09;6.87;;;6.27;;
12171;SDS011;6149;52.418;13.668;2023-04-24T00:48:38;6.07;;;5.47;;
12171;SDS011;6149;52.418;13.668;2023-04-24T00:51:09;7.00;;;6.30;;
12171;SDS011;6149;52.418;13.668;2023-04-24T00:53:49;7.00;;;6.30;;
12171;SDS011;6149;52.418;13.668;2023-04-24T00:56:19;6.47;;;5.87;;
12171;SDS011;6149;52.418;13.668;2023-04-24T00:58:47;5.93;;;5.40;;
12171;SDS011;6149;52.418;13.668;2023-04-24T01:01:14;7.30;;;6.03;;
12171;SDS011;6149;52.418;13.668;2023-04-24T01:03:44;6.20;;;5.57;;
12171;SDS011;6149;52.418;13.668;2023-04-24T01:06:13;6.33;;;5.70;;
12171;SDS011;6149;52.418;13.668;2023-04-24T01:08:43;7.23;;;6.37;;
12171;SDS011;6149;52.418;13.668;2023-04-24T01:11:16;8.53;;;6.70;;
12171;SDS011;6149;52.418;13.668;2023-04-24T01:13:45;7.60;;;6.80;;
12171;SDS011;6149;52.418;13.668;2023-04-24T01:16:15;6.77;;;6.17;;
12171;SDS011;6149;52.418;13.668;2023-04-24T01:18:43;6.47;;;5.93;;
12171;SDS011;6149;52.418;13.668;2023-04-24T01:21:14;7.03;;;6.33;;
12171;SDS011;6149;52.418;13.668;2023-04-24T01:23:45;8.00;;;7.20;;
12171;SDS011;6149;52.418;13.668;2023-04-24T01:26:16;7.63;;;6.57;;
12171;SDS011;6149;52.418;13.668;2023-04-24T01:28:46;7.27;;;6.30;;
12171;SDS011;6149;52.418;13.668;2023-04-24T01:31:13;7.43;;;6.27;;
12171;SDS011;6149;52.418;13.668;2023-04-24T01:33:43;7.30;;;6.27;;
12171;SDS011;6149;52.418;13.668;2023-04-24T01:36:10;7.63;;;6.93;;
12171;SDS011;6149;52.418;13.668;2023-04-24T01:38:39;7.77;;;6.87;;
12171;SDS011;6149;52.418;13.668;2023-04-24T01:41:15;7.13;;;6.43;;
12171;SDS011;6149;52.418;13.668;2023-04-24T01:43:42;7.10;;;6.40;;
12171;SDS011;6149;52.418;13.668;2023-04-24T01:46:08;8.10;;;7.40;;
12171;SDS011;6149;52.418;13.668;2023-04-24T01:48:36;7.30;;;6.60;;
12171;SDS011;6149;52.418;13.668;2023-04-24T01:51:03;6.97;;;6.27;;
12171;SDS011;6149;52.418;13.668;2023-04-24T01:53:32;7.63;;;6.63;;
12171;SDS011;6149;52.418;13.668;2023-04-24T01:55:58;6.83;;;6.13;;
12171;SDS011;6149;52.418;13.668;2023-04-24T01:58:27;7.97;;;7.17;;
12171;SDS011;6149;52.418;13.668;2023-04-24T02:00:55;7.67;;;6.87;;
12171;SDS011;6149;52.418;13.668;2023-04-24T02:03:25;7.80;;;6.67;;
12171;SDS011;6149;52.418;13.668;2023-04-24T02:05:51;6.47;;;5.77;;
12171;SDS011;6149;52.418;13.668;2023-04-24T02:08:19;8.77;;;7.20;;
12171;SDS011;6149;52.418;13.668;2023-04-24T02:10:46;7.80;;;7.00;;
12171;SDS011;6149;52.418;13.668;2023-04-24T02:13:14;7.17;;;6.47;;
12171;SDS011;6149;52.418;13.668;2023-04-24T02:15:44;7.60;;;6.80;;
12171;SDS011;6149;52.418;13.668;2023-04-24T02:18:13;7.67;;;6.97;;
12171;SDS011;6149;52.418;13.668;2023-04-24T02:20:41;7.70;;;7.00;;
12171;SDS011;6149;52.418;13.668;2023-04-24T02:23:13;8.07;;;7.27;;
12171;SDS011;6149;52.418;13.668;2023-04-24T02:25:41;8.17;;;7.37;;
12171;SDS011;6149;52.418;13.668;2023-04-24T02:28:08;8.27;;;7.47;;
12171;SDS011;6149;52.418;13.668;2023-04-24T02:30:36;8.00;;;7.20;;
12171;SDS011;6149;52.418;13.668;2023-04-24T02:33:08;7.87;;;7.07;;
12171;SDS011;6149;52.418;13.668;2023-04-24T02:35:35;8.47;;;7.67;;
12171;SDS011;6149;52.418;13.668;2023-04-24T02:38:05;8.53;;;7.70;;
12171;SDS011;6149;52.418;13.668;2023-04-24T02:40:32;8.20;;;7.40;;
12171;SDS011;6149;52.418;13.668;2023-04-24T02:42:58;7.23;;;6.63;;
12171;SDS011;6149;52.418;13.668;2023-04-24T02:45:27;9.37;;;7.07;;
12171;SDS011;6149;52.418;13.668;2023-04-24T02:47:56;9.13;;;7.93;;
12171;SDS011;6149;52.418;13.668;2023-04-24T02:50:25;8.60;;;7.50;;
12171;SDS011;6149;52.418;13.668;2023-04-24T02:52:53;9.17;;;7.67;;
12171;SDS011;6149;52.418;13.668;2023-04-24T02:55:20;8.27;;;7.47;;
12171;SDS011;6149;52.418;13.668;2023-04-24T02:57:47;8.53;;;7.37;;
12171;SDS011;6149;52.418;13.668;2023-04-24T03:00:16;9.00;;;8.10;;
12171;SDS011;6149;52.418;13.668;2023-04-24T03:02:44;8.57;;;7.20;;
12171;SDS011;6149;52.418;13.668;2023-04-24T03:05:14;9.27;;;8.37;;
12171;SDS011;6149;52.418;13.668;2023-04-24T03:07:45;8.07;;;7.27;;
12171;SDS011;6149;52.418;13.668;2023-04-24T03:10:13;8.70;;;7.17;;
12171;SDS011;6149;52.418;13.668;2023-04-24T03:12:43;7.67;;;6.97;;
12171;SDS011;6149;52.418;13.668;2023-04-24T03:15:11;8.47;;;7.63;;
12171;SDS011;6149;52.418;13.668;2023-04-24T03:17:45;7.70;;;7.00;;
12171;SDS011;6149;52.418;13.668;2023-04-24T03:20:14;8.40;;;7.47;;
12171;SDS011;6149;52.418;13.668;2023-04-24T03:22:42;7.97;;;7.17;;
12171;SDS011;6149;52.418;13.668;2023-04-24T03:25:13;7.87;;;7.07;;
12171;SDS011;6149;52.418;13.668;2023-04-24T03:27:41;8.93;;;8.03;;
12171;SDS011;6149;52.418;13.668;2023-04-24T03:30:11;8.57;;;7.73;;
12171;SDS011;6149;52.418;13.668;2023-04-24T03:32:39;8.10;;;7.30;;
12171;SDS011;6149;52.418;13.668;2023-04-24T03:35:08;7.43;;;6.73;;
12171;SDS011;6149;52.418;13.668;2023-04-24T03:37:38;7.70;;;6.90;;
12171;SDS011;6149;52.418;13.668;2023-04-24T03:40:08;8.20;;;7.40;;
12171;SDS011;6149;52.418;13.668;2023-04-24T03:42:38;8.13;;;7.40;;
12171;SDS011;6149;52.418;13.668;2023-04-24T03:45:08;8.67;;;7.87;;
12171;SDS011;6149;52.418;13.668;2023-04-24T03:47:37;8.87;;;8.03;;
12171;SDS011;6149;52.418;13.668;2023-04-24T03:50:05;9.10;;;8.30;;
12171;SDS011;6149;52.418;13.668;2023-04-24T03:52:32;8.60;;;7.70;;
12171;SDS011;6149;52.418;13.668;2023-04-24T03:54:59;8.10;;;7.30;;
12171;SDS011;6149;52.418;13.668;2023-04-24T03:57:28;7.77;;;7.07;;
12171;SDS011;6149;52.418;13.668;2023-04-24T03:59:54;8.40;;;7.60;;
12171;SDS011;6149;52.418;13.668;2023-04-24T04:02:21;9.60;;;8.60;;
12171;SDS011;6149;52.418;13.668;2023-04-24T04:04:47;8.93;;;8.13;;
12171;SDS011;6149;52.418;13.668;2023-04-24T04:07:15;8.17;;;7.37;;
12171;SDS011;6149;52.418;13.668;2023-04-24T04:09:43;8.30;;;7.50;;
12171;SDS011;6149;52.418;13.668;2023-04-24T04:12:11;8.57;;;7.63;;
12171;SDS011;6149;52.418;13.668;2023-04-24T04:14:40;8.37;;;7.57;;
12171;SDS011;6149;52.418;13.668;2023-04-24T04:17:10;8.20;;;7.40;;
12171;SDS011;6149;52.418;13.668;2023-04-24T04:19:47;8.47;;;7.67;;
12171;SDS011;6149;52.418;13.668;2023-04-24T04:22:15;10.03;;;8.60;;
12171;SDS011;6149;52.418;13.668;2023-04-24T04:24:43;8.87;;;8.00;;
12171;SDS011;6149;52.418;13.668;2023-04-24T04:27:13;10.60;;;9.60;;
12171;SDS011;6149;52.418;13.668;2023-04-24T04:29:49;10.47;;;9.47;;
12171;SDS011;6149;52.418;13.668;2023-04-24T04:32:18;10.57;;;9.53;;
12171;SDS011;6149;52.418;13.668;2023-04-24T04:34:45;10.03;;;9.00;;
12171;SDS011;6149;52.418;13.668;2023-04-24T04:37:15;10.83;;;8.97;;
12171;SDS011;6149;52.418;13.668;2023-04-24T04:39:43;9.33;;;8.43;;
12171;SDS011;6149;52.418;13.668;2023-04-24T04:42:14;8.47;;;7.67;;
12171;SDS011;6149;52.418;13.668;2023-04-24T04:44:43;10.40;;;8.23;;
12171;SDS011;6149;52.418;13.668;2023-04-24T04:47:13;9.63;;;8.63;;
12171;SDS011;6149;52.418;13.668;2023-04-24T04:49:47;10.43;;;9.43;;
12171;SDS011;6149;52.418;13.668;2023-04-24T04:52:15;9.27;;;8.30;;
12171;SDS011;6149;52.418;13.668;2023-04-24T04:54:43;9.63;;;8.73;;
12171;SDS011;6149;52.418;13.668;2023-04-24T04:57:11;9.00;;;8.10;;
12171;SDS011;6149;52.418;13.668;2023-04-24T04:59:40;10.17;;;8.27;;
12171;SDS011;6149;52.418;13.668;2023-04-24T05:02:08;9.77;;;8.77;;
12171;SDS011;6149;52.418;13.668;2023-04-24T05:04:42;9.27;;;8.37;;
12171;SDS011;6149;52.418;13.668;2023-04-24T05:07:10;9.13;;;8.00;;
12171;SDS011;6149;52.418;13.668;2023-04-24T05:09:37;9.93;;;8.93;;
12171;SDS011;6149;52.418;13.668;2023-04-24T05:12:07;9.13;;;8.10;;
12171;SDS011;6149;52.418;13.668;2023-04-24T05:14:34;8.20;;;7.40;;
12171;SDS011;6149;52.418;13.668;2023-04-24T05:17:04;8.93;;;8.03;;
12171;SDS011;6149;52.418;13.668;2023-04-24T05:19:35;8.70;;;7.80;;
12171;SDS011;6149;52.418;13.668;2023-04-24T05:22:03;9.17;;;8.27;;
12171;SDS011;6149;52.418;13.668;2023-04-24T05:24:34;8.70;;;7.80;;
12171;SDS011;6149;52.418;13.668;2023-04-24T05:27:05;9.70;;;8.13;;
12171;SDS011;6149;52.418;13.668;2023-04-24T05:29:32;8.03;;;7.33;;
12171;SDS011;6149;52.418;13.668;2023-04-24T05:31:59;7.70;;;7.00;;
12171;SDS011;6149;52.418;13.668;2023-04-24T05:34:26;7.87;;;7.07;;
12171;SDS011;6149;52.418;13.668;2023-04-24T05:36:58;6.90;;;6.27;;
12171;SDS011;6149;52.418;13.668;2023-04-24T05:39:24;7.63;;;6.63;;
12171;SDS011;6149;52.418;13.668;2023-04-24T05:41:51;6.40;;;5.67;;
12171;SDS011;6149;52.418;13.668;2023-04-24T05:44:19;6.20;;;5.67;;
12171;SDS011;6149;52.418;13.668;2023-04-24T05:46:46;5.63;;;5.10;;
12171;SDS011;6149;52.418;13.668;2023-04-24T05:49:14;4.87;;;4.47;;
12171;SDS011;6149;52.418;13.668;2023-04-24T05:51:43;5.50;;;4.63;;
12171;SDS011;6149;52.418;13.668;2023-04-24T05:54:13;5.23;;;4.00;;
12171;SDS011;6149;52.418;13.668;2023-04-24T05:56:44;4.00;;;3.60;;
12171;SDS011;6149;52.418;13.668;2023-04-24T05:59:12;5.07;;;4.23;;
12171;SDS011;6149;52.418;13.668;2023-04-24T06:01:41;4.03;;;3.40;;
12171;SDS011;6149;52.418;13.668;2023-04-24T06:04:13;4.87;;;3.37;;
12171;SDS011;6149;52.418;13.668;2023-04-24T06:06:42;3.67;;;3.20;;
12171;SDS011;6149;52.418;13.668;2023-04-24T06:09:11;4.83;;;2.60;;
12171;SDS011;6149;52.418;13.668;2023-04-24T06:11:43;2.80;;;2.50;;
12171;SDS011;6149;52.418;13.668;2023-04-24T06:14:10;3.10;;;2.90;;
12171;SDS011;6149;52.418;13.668;2023-04-24T06:16:41;4.47;;;2.97;;
12171;SDS011;6149;52.418;13.668;2023-04-24T06:19:10;2.87;;;2.23;;
12171;SDS011;6149;52.418;13.668;2023-04-24T06:21:41;3.00;;;2.70;;
12171;SDS011;6149;52.418;13.668;2023-04-24T06:24:14;2.80;;;2.43;;
12171;SDS011;6149;52.418;13.668;2023-04-24T06:26:43;2.80;;;2.37;;
12171;SDS011;6149;52.418;13.668;2023-04-24T06:29:13;3.23;;;2.60;;
12171;SDS011;6149;52.418;13.668;2023-04-24T06:31:41;2.40;;;2.20;;
12171;SDS011;6149;52.418;13.668;2023-04-24T06:34:08;2.30;;;1.93;;
12171;SDS011;6149;52.418;13.668;2023-04-24T06:36:34;2.67;;;2.17;;
12171;SDS011;6149;52.418;13.668;2023-04-24T06:39:01;3.50;;;2.20;;
12171;SDS011;6149;52.418;13.668;2023-04-24T06:41:29;2.87;;;2.10;;
12171;SDS011;6149;52.418;13.668;2023-04-24T06:43:56;4.37;;;2.00;;
12171;SDS011;6149;52.418;13.668;2023-04-24T06:46:24;2.73;;;1.90;;
12171;SDS011;6149;52.418;13.668;2023-04-24T06:48:52;2.67;;;1.80;;
12171;SDS011;6149;52.418;13.668;2023-04-24T06:51:20;2.67;;;2.07;;
12171;SDS011;6149;52.418;13.668;2023-04-24T06:53:48;2.60;;;2.07;;
12171;SDS011;6149;52.418;13.668;2023-04-24T06:56:16;1.93;;;1.73;;
12171;SDS011;6149;52.418;13.668;2023-04-24T06:58:45;1.80;;;1.70;;
12171;SDS011;6149;52.418;13.668;2023-04-24T07:01:12;6.67;;;2.00;;
12171;SDS011;6149;52.418;13.668;2023-04-24T07:03:41;2.37;;;1.70;;
12171;SDS011;6149;52.418;13.668;2023-04-24T07:06:11;1.70;;;1.40;;
12171;SDS011;6149;52.418;13.668;2023-04-24T07:08:44;2.70;;;2.00;;
12171;SDS011;6149;52.418;13.668;2023-04-24T07:11:13;2.77;;;1.63;;
12171;SDS011;6149;52.418;13.668;2023-04-24T07:13:41;1.90;;;1.50;;
12171;SDS011;6149;52.418;13.668;2023-04-24T07:16:17;2.57;;;1.30;;
12171;SDS011;6149;52.418;13.668;2023-04-24T07:18:45;2.23;;;1.43;;
12171;SDS011;6149;52.418;13.668;2023-04-24T07:21:14;1.67;;;1.40;;
12171;SDS011;6149;52.418;13.668;2023-04-24T07:23:42;1.57;;;1.10;;
12171;SDS011;6149;52.418;13.668;2023-04-24T07:26:19;1.33;;;1.23;;
12171;SDS011;6149;52.418;13.668;2023-04-24T07:28:48;2.30;;;1.30;;
12171;SDS011;6149;52.418;13.668;2023-04-24T07:31:17;1.40;;;1.27;;
12171;SDS011;6149;52.418;13.668;2023-04-24T07:33:43;1.87;;;1.30;;
12171;SDS011;6149;52.418;13.668;2023-04-24T07:36:11;2.17;;;1.60;;
12171;SDS011;6149;52.418;13.668;2023-04-24T07:38:43;1.60;;;1.20;;
12171;SDS011;6149;52.418;13.668;2023-04-24T07:41:12;1.43;;;1.27;;
12171;SDS011;6149;52.418;13.668;2023-04-24T07:43:42;3.53;;;1.70;;
12171;SDS011;6149;52.418;13.668;2023-04-24T07:46:12;2.20;;;1.20;;
12171;SDS011;6149;52.418;13.668;2023-04-24T07:48:46;2.53;;;1.30;;
12171;SDS011;6149;52.418;13.668;2023-04-24T07:51:16;2.77;;;1.13;;
12171;SDS011;6149;52.418;13.668;2023-04-24T07:53:43;1.43;;;1.03;;
12171;SDS011;6149;52.418;13.668;2023-04-24T07:56:11;1.77;;;0.90;;
12171;SDS011;6149;52.418;13.668;2023-04-24T07:58:53;1.90;;;1.20;;
12171;SDS011;6149;52.418;13.668;2023-04-24T08:01:21;1.57;;;1.17;;
12171;SDS011;6149;52.418;13.668;2023-04-24T08:03:51;2.07;;;1.20;;
12171;SDS011;6149;52.418;13.668;2023-04-24T08:06:18;1.13;;;1.03;;
12171;SDS011;6149;52.418;13.668;2023-04-24T08:08:45;1.47;;;1.00;;
12171;SDS011;6149;52.418;13.668;2023-04-24T08:11:13;2.17;;;1.13;;
12171;SDS011;6149;52.418;13.668;2023-04-24T08:13:42;2.00;;;1.30;;
12171;SDS011;6149;52.418;13.668;2023-04-24T08:16:11;2.07;;;1.17;;
12171;SDS011;6149;52.418;13.668;2023-04-24T08:18:42;1.30;;;1.00;;
12171;SDS011;6149;52.418;13.668;2023-04-24T08:21:24;2.23;;;1.03;;
12171;SDS011;6149;52.418;13.668;2023-04-24T08:23:53;1.33;;;0.90;;
12171;SDS011;6149;52.418;13.668;2023-04-24T08:26:22;2.60;;;1.00;;
12171;SDS011;6149;52.418;13.668;2023-04-24T08:28:50;2.70;;;1.20;;
12171;SDS011;6149;52.418;13.668;2023-04-24T08:31:18;1.83;;;0.90;;
12171;SDS011;6149;52.418;13.668;2023-04-24T08:33:46;1.47;;;1.00;;
12171;SDS011;6149;52.418;13.668;2023-04-24T08:36:14;1.57;;;1.03;;
12171;SDS011;6149;52.418;13.668;2023-04-24T08:38:44;1.67;;;0.80;;
12171;SDS011;6149;52.418;13.668;2023-04-24T08:41:16;2.63;;;0.90;;
12171;SDS011;6149;52.418;13.668;2023-04-24T08:43:45;2.57;;;0.80;;
12171;SDS011;6149;52.418;13.668;2023-04-24T08:46:17;2.37;;;0.70;;
12171;SDS011;6149;52.418;13.668;2023-04-24T08:48:46;1.40;;;0.80;;
12171;SDS011;6149;52.418;13.668;2023-04-24T08:51:20;1.10;;;0.90;;
12171;SDS011;6149;52.418;13.668;2023-04-24T08:53:49;1.93;;;0.80;;
12171;SDS011;6149;52.418;13.668;2023-04-24T08:56:18;2.70;;;0.87;;
12171;SDS011;6149;52.418;13.668;2023-04-24T08:58:46;1.10;;;0.90;;
12171;SDS011;6149;52.418;13.668;2023-04-24T09:01:15;0.80;;;0.80;;
12171;SDS011;6149;52.418;13.668;2023-04-24T09:03:51;2.50;;;1.10;;
12171;SDS011;6149;52.418;13.668;2023-04-24T09:06:22;2.30;;;0.90;;
12171;SDS011;6149;52.418;13.668;2023-04-24T09:08:51;1.20;;;0.70;;
12171;SDS011;6149;52.418;13.668;2023-04-24T09:11:22;1.13;;;0.90;;
12171;SDS011;6149;52.418;13.668;2023-04-24T09:13:52;1.43;;;0.83;;
12171;SDS011;6149;52.418;13.668;2023-04-24T09:16:21;1.33;;;0.80;;
12171;SDS011;6149;52.418;13.668;2023-04-24T09:18:50;1.73;;;0.87;;
12171;SDS011;6149;52.418;13.668;2023-04-24T09:21:19;1.87;;;1.10;;
12171;SDS011;6149;52.418;13.668;2023-04-24T09:23:57;1.13;;;0.80;;
12171;SDS011;6149;52.418;13.668;2023-04-24T09:26:28;1.37;;;0.93;;
12171;SDS011;6149;52.418;13.668;2023-04-24T09:28:59;1.27;;;0.90;;
12171;SDS011;6149;52.418;13.668;2023-04-24T09:31:27;2.40;;;1.10;;
12171;SDS011;6149;52.418;13.668;2023-04-24T09:33:57;2.07;;;1.27;;
12171;SDS011;6149;52.418;13.668;2023-04-24T09:36:32;2.00;;;1.27;;
12171;SDS011;6149;52.418;13.668;2023-04-24T09:39:02;3.00;;;0.90;;
12171;SDS011;6149;52.418;13.668;2023-04-24T09:41:34;3.73;;;1.00;;
12171;SDS011;6149;52.418;13.668;2023-04-24T09:44:10;1.50;;;0.80;;
12171;SDS011;6149;52.418;13.668;2023-04-24T09:46:43;1.10;;;0.93;;
12171;SDS011;6149;52.418;13.668;2023-04-24T09:49:21;0.70;;;0.70;;
12171;SDS011;6149;52.418;13.668;2023-04-24T09:51:52;2.50;;;0.90;;
12171;SDS011;6149;52.418;13.668;2023-04-24T09:54:30;1.67;;;1.13;;
12171;SDS011;6149;52.418;13.668;2023-04-24T09:56:57;2.13;;;1.00;;
12171;SDS011;6149;52.418;13.668;2023-04-24T09:59:26;1.63;;;1.07;;
12171;SDS011;6149;52.418;13.668;2023-04-24T10:01:56;1.40;;;0.97;;
12171;SDS011;6149;52.418;13.668;2023-04-24T10:04:25;2.30;;;0.90;;
12171;SDS011;6149;52.418;13.668;2023-04-24T10:06:58;1.57;;;0.90;;
12171;SDS011;6149;52.418;13.668;2023-04-24T10:09:27;2.50;;;0.90;;
12171;SDS011;6149;52.418;13.668;2023-04-24T10:11:54;2.60;;;1.10;;
12171;SDS011;6149;52.418;13.668;2023-04-24T10:14:24;2.10;;;1.10;;
12171;SDS011;6149;52.418;13.668;2023-04-24T10:16:53;2.23;;;1.10;;
12171;SDS011;6149;52.418;13.668;2023-04-24T10:19:22;1.17;;;1.00;;
12171;SDS011;6149;52.418;13.668;2023-04-24T10:21:53;3.13;;;1.30;;
12171;SDS011;6149;52.418;13.668;2023-04-24T10:24:23;1.90;;;0.97;;
12171;SDS011;6149;52.418;13.668;2023-04-24T10:26:51;4.30;;;1.10;;
12171;SDS011;6149;52.418;13.668;2023-04-24T10:29:19;2.10;;;0.90;;
12171;SDS011;6149;52.418;13.668;2023-04-24T10:31:48;1.40;;;0.83;;
12171;SDS011;6149;52.418;13.668;2023-04-24T10:34:16;1.10;;;1.00;;
12171;SDS011;6149;52.418;13.668;2023-04-24T10:36:50;2.10;;;1.10;;
12171;SDS011;6149;52.418;13.668;2023-04-24T10:39:19;2.17;;;1.00;;
12171;SDS011;6149;52.418;13.668;2023-04-24T10:41:50;1.20;;;0.87;;
12171;SDS011;6149;52.418;13.668;2023-04-24T10:44:18;1.60;;;1.00;;
12171;SDS011;6149;52.418;13.668;2023-04-24T10:46:52;1.13;;;0.80;;
12171;SDS011;6149;52.418;13.668;2023-04-24T10:49:27;1.53;;;0.70;;
12171;SDS011;6149;52.418;13.668;2023-04-24T10:51:59;0.97;;;0.80;;
12171;SDS011;6149;52.418;13.668;2023-04-24T10:54:34;1.27;;;0.80;;
12171;SDS011;6149;52.418;13.668;2023-04-24T11:00:10;1.70;;;1.00;;
12171;SDS011;6149;52.418;13.668;2023-04-24T11:02:45;1.77;;;1.00;;
12171;SDS011;6149;52.418;13.668;2023-04-24T11:05:19;0.90;;;0.70;;
12171;SDS011;6149;52.418;13.668;2023-04-24T11:10:47;2.63;;;1.07;;
12171;SDS011;6149;52.418;13.668;2023-04-24T11:16:32;2.67;;;0.90;;
12171;SDS011;6149;52.418;13.668;2023-04-24T11:19:06;1.33;;;1.00;;
12171;SDS011;6149;52.418;13.668;2023-04-24T11:21:42;1.00;;;0.90;;
12171;SDS011;6149;52.418;13.668;2023-04-24T11:24:26;1.67;;;1.00;;
12171;SDS011;6149;52.418;13.668;2023-04-24T11:26:57;2.30;;;1.00;;
12171;SDS011;6149;52.418;13.668;2023-04-24T11:29:59;2.53;;;0.90;;
12171;SDS011;6149;52.418;13.668;2023-04-24T11:32:30;1.10;;;1.00;;
12171;SDS011;6149;52.418;13.668;2023-04-24T11:35:03;1.70;;;0.87;;
12171;SDS011;6149;52.418;13.668;2023-04-24T11:37:37;1.27;;;0.93;;
12171;SDS011;6149;52.418;13.668;2023-04-24T11:40:07;2.03;;;0.90;;
12171;SDS011;6149;52.418;13.668;2023-04-24T11:42:36;2.03;;;0.70;;
12171;SDS011;6149;52.418;13.668;2023-04-24T11:45:11;1.20;;;0.80;;
12171;SDS011;6149;52.418;13.668;2023-04-24T11:47:42;1.97;;;0.90;;
12171;SDS011;6149;52.418;13.668;2023-04-24T11:50:13;2.63;;;0.80;;
12171;SDS011;6149;52.418;13.668;2023-04-24T11:52:45;1.07;;;0.87;;
12171;SDS011;6149;52.418;13.668;2023-04-24T11:55:25;1.50;;;0.90;;
12171;SDS011;6149;52.418;13.668;2023-04-24T11:57:56;1.70;;;0.90;;
12171;SDS011;6149;52.418;13.668;2023-04-24T12:00:28;2.23;;;1.20;;
12171;SDS011;6149;52.418;13.668;2023-04-24T12:03:04;1.13;;;1.00;;
12171;SDS011;6149;52.418;13.668;2023-04-24T12:05:34;1.90;;;1.17;;
12171;SDS011;6149;52.418;13.668;2023-04-24T12:08:02;1.37;;;1.07;;
12171;SDS011;6149;52.418;13.668;2023-04-24T12:10:31;2.07;;;1.27;;
12171;SDS011;6149;52.418;13.668;2023-04-24T12:13:00;1.57;;;1.10;;
12171;SDS011;6149;52.418;13.668;2023-04-24T12:15:33;2.17;;;1.20;;
12171;SDS011;6149;52.418;13.668;2023-04-24T12:18:01;1.50;;;1.13;;
12171;SDS011;6149;52.418;13.668;2023-04-24T12:20:32;1.17;;;1.07;;
12171;SDS011;6149;52.418;13.668;2023-04-24T12:23:01;3.37;;;1.07;;
12171;SDS011;6149;52.418;13.668;2023-04-24T12:25:29;0.90;;;0.80;;
12171;SDS011;6149;52.418;13.668;2023-04-24T12:28:08;1.77;;;0.87;;
12171;SDS011;6149;52.418;13.668;2023-04-24T12:30:52;2.40;;;0.90;;
12171;SDS011;6149;52.418;13.668;2023-04-24T12:33:21;2.73;;;0.80;;
12171;SDS011;6149;52.418;13.668;2023-04-24T12:35:52;1.23;;;0.83;;
12171;SDS011;6149;52.418;13.668;2023-04-24T12:38:21;2.23;;;0.90;;
12171;SDS011;6149;52.418;13.668;2023-04-24T12:41:01;2.00;;;1.00;;
12171;SDS011;6149;52.418;13.668;2023-04-24T12:43:30;2.23;;;0.90;;
12171;SDS011;6149;52.418;13.668;2023-04-24T12:46:00;1.27;;;0.80;;
12171;SDS011;6149;52.418;13.668;2023-04-24T12:48:28;2.13;;;1.10;;
12171;SDS011;6149;52.418;13.668;2023-04-24T12:51:00;1.20;;;0.87;;
12171;SDS011;6149;52.418;13.668;2023-04-24T12:53:27;2.30;;;0.83;;
12171;SDS011;6149;52.418;13.668;2023-04-24T12:55:57;1.27;;;0.90;;
12171;SDS011;6149;52.418;13.668;2023-04-24T12:58:25;0.90;;;0.80;;
12171;SDS011;6149;52.418;13.668;2023-04-24T13:00:53;2.83;;;0.80;;
12171;SDS011;6149;52.418;13.668;2023-04-24T13:03:22;1.37;;;0.77;;
12171;SDS011;6149;52.418;13.668;2023-04-24T13:05:50;2.07;;;0.80;;
12171;SDS011;6149;52.418;13.668;2023-04-24T13:08:18;1.60;;;0.80;;
12171;SDS011;6149;52.418;13.668;2023-04-24T13:10:46;1.80;;;0.60;;
12171;SDS011;6149;52.418;13.668;2023-04-24T13:13:14;0.80;;;0.80;;
12171;SDS011;6149;52.418;13.668;2023-04-24T13:15:43;1.10;;;0.70;;
12171;SDS011;6149;52.418;13.668;2023-04-24T13:18:12;2.23;;;0.70;;
12171;SDS011;6149;52.418;13.668;2023-04-24T13:20:41;2.33;;;0.90;;
12171;SDS011;6149;52.418;13.668;2023-04-24T13:23:10;1.53;;;0.80;;
12171;SDS011;6149;52.418;13.668;2023-04-24T13:25:40;0.97;;;0.70;;
12171;SDS011;6149;52.418;13.668;2023-04-24T13:28:08;1.43;;;0.80;;
12171;SDS011;6149;52.418;13.668;2023-04-24T13:30:36;1.50;;;0.67;;
12171;SDS011;6149;52.418;13.668;2023-04-24T13:33:04;1.83;;;0.90;;
12171;SDS011;6149;52.418;13.668;2023-04-24T13:35:34;2.40;;;0.70;;
12171;SDS011;6149;52.418;13.668;2023-04-24T13:38:03;6.23;;;0.90;;
12171;SDS011;6149;52.418;13.668;2023-04-24T13:40:32;2.30;;;1.00;;
12171;SDS011;6149;52.418;13.668;2023-04-24T13:43:01;3.47;;;1.00;;
12171;SDS011;6149;52.418;13.668;2023-04-24T13:45:31;2.60;;;0.80;;
12171;SDS011;6149;52.418;13.668;2023-04-24T13:47:59;1.00;;;0.60;;
12171;SDS011;6149;52.418;13.668;2023-04-24T13:50:29;1.67;;;0.80;;
12171;SDS011;6149;52.418;13.668;2023-04-24T13:52:57;1.33;;;0.80;;
12171;SDS011;6149;52.418;13.668;2023-04-24T13:55:31;1.37;;;0.80;;
12171;SDS011;6149;52.418;13.668;2023-04-24T13:57:58;0.80;;;0.80;;
12171;SDS011;6149;52.418;13.668;2023-04-24T14:00:27;0.90;;;0.60;;
12171;SDS011;6149;52.418;13.668;2023-04-24T14:02:55;1.97;;;0.87;;
12171;SDS011;6149;52.418;13.668;2023-04-24T14:05:23;1.57;;;1.10;;
12171;SDS011;6149;52.418;13.668;2023-04-24T14:07:51;3.63;;;1.03;;
12171;SDS011;6149;52.418;13.668;2023-04-24T14:10:19;1.80;;;0.70;;
12171;SDS011;6149;52.418;13.668;2023-04-24T14:12:51;2.83;;;0.87;;
12171;SDS011;6149;52.418;13.668;2023-04-24T14:15:23;0.90;;;0.80;;
12171;SDS011;6149;52.418;13.668;2023-04-24T14:17:51;1.27;;;0.97;;
12171;SDS011;6149;52.418;13.668;2023-04-24T14:20:19;1.47;;;0.77;;
12171;SDS011;6149;52.418;13.668;2023-04-24T14:22:47;2.60;;;0.87;;
12171;SDS011;6149;52.418;13.668;2023-04-24T14:25:15;1.07;;;0.90;;
12171;SDS011;6149;52.418;13.668;2023-04-24T14:27:43;2.07;;;0.90;;
12171;SDS011;6149;52.418;13.668;2023-04-24T14:30:13;1.37;;;1.00;;
12171;SDS011;6149;52.418;13.668;2023-04-24T14:32:42;2.07;;;0.80;;
12171;SDS011;6149;52.418;13.668;2023-04-24T14:35:10;1.20;;;1.10;;
12171;SDS011;6149;52.418;13.668;2023-04-24T14:37:38;1.00;;;0.80;;
12171;SDS011;6149;52.418;13.668;2023-04-24T14:40:09;1.53;;;0.90;;
12171;SDS011;6149;52.418;13.668;2023-04-24T14:42:38;1.17;;;0.80;;
12171;SDS011;6149;52.418;13.668;2023-04-24T14:45:06;1.50;;;0.90;;
12171;SDS011;6149;52.418;13.668;2023-04-24T14:47:38;1.13;;;0.90;;
12171;SDS011;6149;52.418;13.668;2023-04-24T14:50:06;0.90;;;0.90;;
12171;SDS011;6149;52.418;13.668;2023-04-24T14:52:34;1.93;;;0.90;;
12171;SDS011;6149;52.418;13.668;2023-04-24T14:55:04;1.73;;;0.80;;
12171;SDS011;6149;52.418;13.668;2023-04-24T14:57:34;2.90;;;0.90;;
12171;SDS011;6149;52.418;13.668;2023-04-24T15:00:03;1.67;;;1.00;;
12171;SDS011;6149;52.418;13.668;2023-04-24T15:02:34;2.30;;;1.20;;
12171;SDS011;6149;52.418;13.668;2023-04-24T15:05:07;1.10;;;0.80;;
12171;SDS011;6149;52.418;13.668;2023-04-24T15:07:35;2.40;;;0.87;;
12171;SDS011;6149;52.418;13.668;2023-04-24T15:10:04;2.40;;;0.90;;
12171;SDS011;6149;52.418;13.668;2023-04-24T15:12:33;3.20;;;1.67;;